sensor_id;sensor_type;location;lat;lon;timestamp;P1;durP1;ratioP1;P2;durP2;ratioP2
20084;SDS011;10202;48.474;9.138;2022-08-03T00:01:19;3.92;;;3.53;;
20084;SDS011;10202;48.474;9.138;2022-08-03T00:03:44;12.07;;;3.50;;
20084;SDS011;10202;48.474;9.138;2022-08-03T00:06:10;4.85;;;3.17;;
20084;SDS011;10202;48.474;9.138;2022-08-03T00:08:35;3.50;;;3.20;;
20084;SDS011;10202;48.474;9.138;2022-08-03T00:11:01;4.43;;;3.38;;
20084;SDS011;10202;48.474;9.138;2022-08-03T00:13:27;5.03;;;3.60;;
20084;SDS011;10202;48.474;9.138;2022-08-03T00:15:53;4.60;;;3.13;;
20084;SDS011;10202;48.474;9.138;2022-08-03T00:18:18;7.57;;;3.35;;
20084;SDS011;10202;48.474;9.138;2022-08-03T00:20:44;6.57;;;3.28;;
20084;SDS011;10202;48.474;9.138;2022-08-03T00:23:10;10.65;;;3.47;;
20084;SDS011;10202;48.474;9.138;2022-08-03T00:25:36;4.88;;;3.50;;
20084;SDS011;10202;48.474;9.138;2022-08-03T00:28:02;4.85;;;3.38;;
20084;SDS011;10202;48.474;9.138;2022-08-03T00:30:29;3.50;;;3.20;;
20084;SDS011;10202;48.474;9.138;2022-08-03T00:32:54;5.35;;;3.47;;
20084;SDS011;10202;48.474;9.138;2022-08-03T00:35:20;4.22;;;3.10;;
20084;SDS011;10202;48.474;9.138;2022-08-03T00:37:46;3.63;;;3.17;;
20084;SDS011;10202;48.474;9.138;2022-08-03T00:40:12;4.40;;;3.30;;
20084;SDS011;10202;48.474;9.138;2022-08-03T00:42:55;3.42;;;3.08;;
20084;SDS011;10202;48.474;9.138;2022-08-03T00:45:22;5.28;;;3.20;;
20084;SDS011;10202;48.474;9.138;2022-08-03T00:47:49;3.60;;;3.30;;
20084;SDS011;10202;48.474;9.138;2022-08-03T00:50:15;3.85;;;3.22;;
20084;SDS011;10202;48.474;9.138;2022-08-03T00:52:41;4.88;;;3.38;;
20084;SDS011;10202;48.474;9.138;2022-08-03T00:55:08;4.80;;;3.20;;
20084;SDS011;10202;48.474;9.138;2022-08-03T00:57:33;5.07;;;3.00;;
20084;SDS011;10202;48.474;9.138;2022-08-03T00:59:59;4.47;;;3.80;;
20084;SDS011;10202;48.474;9.138;2022-08-03T01:02:25;3.80;;;3.50;;
20084;SDS011;10202;48.474;9.138;2022-08-03T01:04:52;3.15;;;2.95;;
20084;SDS011;10202;48.474;9.138;2022-08-03T01:07:30;4.25;;;3.40;;
20084;SDS011;10202;48.474;9.138;2022-08-03T01:12:47;7.50;;;3.47;;
20084;SDS011;10202;48.474;9.138;2022-08-03T01:21:23;4.13;;;3.20;;
20084;SDS011;10202;48.474;9.138;2022-08-03T01:23:57;5.78;;;3.47;;
20084;SDS011;10202;48.474;9.138;2022-08-03T01:31:43;4.20;;;3.80;;
20084;SDS011;10202;48.474;9.138;2022-08-03T01:34:16;3.83;;;3.28;;
20084;SDS011;10202;48.474;9.138;2022-08-03T01:36:48;3.50;;;3.20;;
20084;SDS011;10202;48.474;9.138;2022-08-03T01:39:15;5.63;;;3.20;;
20084;SDS011;10202;48.474;9.138;2022-08-03T01:41:45;3.35;;;2.88;;
20084;SDS011;10202;48.474;9.138;2022-08-03T01:44:12;3.50;;;3.20;;
20084;SDS011;10202;48.474;9.138;2022-08-03T01:46:39;4.15;;;3.35;;
20084;SDS011;10202;48.474;9.138;2022-08-03T01:49:08;3.60;;;3.30;;
20084;SDS011;10202;48.474;9.138;2022-08-03T01:51:38;3.35;;;3.05;;
20084;SDS011;10202;48.474;9.138;2022-08-03T01:54:06;3.50;;;3.20;;
20084;SDS011;10202;48.474;9.138;2022-08-03T01:56:33;3.67;;;2.90;;
20084;SDS011;10202;48.474;9.138;2022-08-03T01:58:59;3.17;;;2.67;;
20084;SDS011;10202;48.474;9.138;2022-08-03T02:01:26;5.90;;;3.28;;
20084;SDS011;10202;48.474;9.138;2022-08-03T02:03:52;7.05;;;3.22;;
20084;SDS011;10202;48.474;9.138;2022-08-03T02:06:18;4.63;;;3.00;;
20084;SDS011;10202;48.474;9.138;2022-08-03T02:08:45;5.10;;;3.10;;
20084;SDS011;10202;48.474;9.138;2022-08-03T02:11:13;3.70;;;2.78;;
20084;SDS011;10202;48.474;9.138;2022-08-03T02:13:38;3.20;;;2.90;;
20084;SDS011;10202;48.474;9.138;2022-08-03T02:16:04;3.40;;;3.10;;
20084;SDS011;10202;48.474;9.138;2022-08-03T02:18:31;3.60;;;2.97;;
20084;SDS011;10202;48.474;9.138;2022-08-03T02:21:00;4.30;;;3.20;;
20084;SDS011;10202;48.474;9.138;2022-08-03T02:23:28;4.47;;;3.10;;
20084;SDS011;10202;48.474;9.138;2022-08-03T02:25:58;3.40;;;3.10;;
20084;SDS011;10202;48.474;9.138;2022-08-03T02:28:27;3.72;;;3.30;;
20084;SDS011;10202;48.474;9.138;2022-08-03T02:30:54;3.78;;;3.20;;
20084;SDS011;10202;48.474;9.138;2022-08-03T02:33:24;3.30;;;3.00;;
20084;SDS011;10202;48.474;9.138;2022-08-03T02:35:51;3.97;;;3.20;;
20084;SDS011;10202;48.474;9.138;2022-08-03T02:38:18;4.55;;;3.60;;
20084;SDS011;10202;48.474;9.138;2022-08-03T02:40:45;3.50;;;3.20;;
20084;SDS011;10202;48.474;9.138;2022-08-03T02:43:12;3.53;;;3.22;;
20084;SDS011;10202;48.474;9.138;2022-08-03T02:45:41;4.82;;;3.25;;
20084;SDS011;10202;48.474;9.138;2022-08-03T02:48:08;3.80;;;3.40;;
20084;SDS011;10202;48.474;9.138;2022-08-03T02:50:35;4.43;;;3.63;;
20084;SDS011;10202;48.474;9.138;2022-08-03T02:53:01;6.68;;;3.47;;
20084;SDS011;10202;48.474;9.138;2022-08-03T02:55:27;3.88;;;3.25;;
20084;SDS011;10202;48.474;9.138;2022-08-03T02:57:54;3.75;;;3.33;;
20084;SDS011;10202;48.474;9.138;2022-08-03T03:00:20;4.43;;;3.28;;
20084;SDS011;10202;48.474;9.138;2022-08-03T03:02:45;6.22;;;3.40;;
20084;SDS011;10202;48.474;9.138;2022-08-03T03:05:11;7.68;;;3.28;;
20084;SDS011;10202;48.474;9.138;2022-08-03T03:07:37;4.65;;;3.25;;
20084;SDS011;10202;48.474;9.138;2022-08-03T03:10:03;4.75;;;3.35;;
20084;SDS011;10202;48.474;9.138;2022-08-03T03:12:30;3.70;;;3.40;;
20084;SDS011;10202;48.474;9.138;2022-08-03T03:14:56;4.32;;;3.22;;
20084;SDS011;10202;48.474;9.138;2022-08-03T03:17:21;3.72;;;3.42;;
20084;SDS011;10202;48.474;9.138;2022-08-03T03:19:48;4.65;;;3.03;;
20084;SDS011;10202;48.474;9.138;2022-08-03T03:22:14;4.15;;;3.28;;
20084;SDS011;10202;48.474;9.138;2022-08-03T03:24:41;3.28;;;2.90;;
20084;SDS011;10202;48.474;9.138;2022-08-03T03:27:07;3.53;;;3.22;;
20084;SDS011;10202;48.474;9.138;2022-08-03T03:29:32;3.83;;;3.20;;
20084;SDS011;10202;48.474;9.138;2022-08-03T03:31:59;3.50;;;3.20;;
20084;SDS011;10202;48.474;9.138;2022-08-03T03:34:25;5.95;;;3.60;;
20084;SDS011;10202;48.474;9.138;2022-08-03T03:36:53;3.40;;;3.10;;
20084;SDS011;10202;48.474;9.138;2022-08-03T03:39:18;3.30;;;3.05;;
20084;SDS011;10202;48.474;9.138;2022-08-03T03:41:44;4.13;;;3.22;;
20084;SDS011;10202;48.474;9.138;2022-08-03T03:44:10;4.95;;;3.05;;
20084;SDS011;10202;48.474;9.138;2022-08-03T03:46:36;3.67;;;3.13;;
20084;SDS011;10202;48.474;9.138;2022-08-03T03:49:04;3.55;;;3.08;;
20084;SDS011;10202;48.474;9.138;2022-08-03T03:51:30;4.78;;;3.35;;
20084;SDS011;10202;48.474;9.138;2022-08-03T03:53:58;3.88;;;3.45;;
20084;SDS011;10202;48.474;9.138;2022-08-03T03:56:26;4.75;;;3.33;;
20084;SDS011;10202;48.474;9.138;2022-08-03T03:58:52;4.72;;;3.70;;
20084;SDS011;10202;48.474;9.138;2022-08-03T04:01:17;4.68;;;3.28;;
20084;SDS011;10202;48.474;9.138;2022-08-03T04:03:43;3.83;;;3.42;;
20084;SDS011;10202;48.474;9.138;2022-08-03T04:06:09;3.90;;;3.50;;
20084;SDS011;10202;48.474;9.138;2022-08-03T04:08:53;4.47;;;3.35;;
20084;SDS011;10202;48.474;9.138;2022-08-03T04:12:07;3.83;;;3.38;;
20084;SDS011;10202;48.474;9.138;2022-08-03T04:14:27;4.30;;;2.75;;
20084;SDS011;10202;48.474;9.138;2022-08-03T04:16:56;3.83;;;3.20;;
20084;SDS011;10202;48.474;9.138;2022-08-03T04:19:29;4.15;;;3.22;;
20084;SDS011;10202;48.474;9.138;2022-08-03T04:22:08;14.07;;;3.65;;
20084;SDS011;10202;48.474;9.138;2022-08-03T04:24:39;5.07;;;3.30;;
20084;SDS011;10202;48.474;9.138;2022-08-03T04:27:08;3.45;;;3.15;;
20084;SDS011;10202;48.474;9.138;2022-08-03T04:29:36;3.90;;;3.47;;
20084;SDS011;10202;48.474;9.138;2022-08-03T04:32:04;5.43;;;3.28;;
20084;SDS011;10202;48.474;9.138;2022-08-03T04:34:31;5.38;;;3.50;;
20084;SDS011;10202;48.474;9.138;2022-08-03T04:37:00;4.57;;;3.55;;
20084;SDS011;10202;48.474;9.138;2022-08-03T04:39:28;5.05;;;3.33;;
20084;SDS011;10202;48.474;9.138;2022-08-03T04:41:57;4.03;;;3.08;;
20084;SDS011;10202;48.474;9.138;2022-08-03T04:44:24;3.28;;;2.97;;
20084;SDS011;10202;48.474;9.138;2022-08-03T04:46:50;4.72;;;3.63;;
20084;SDS011;10202;48.474;9.138;2022-08-03T04:49:17;4.22;;;3.20;;
20084;SDS011;10202;48.474;9.138;2022-08-03T04:51:44;3.53;;;2.90;;
20084;SDS011;10202;48.474;9.138;2022-08-03T04:54:12;3.72;;;3.30;;
20084;SDS011;10202;48.474;9.138;2022-08-03T04:56:39;5.40;;;3.30;;
20084;SDS011;10202;48.474;9.138;2022-08-03T04:59:07;4.05;;;3.25;;
20084;SDS011;10202;48.474;9.138;2022-08-03T05:01:33;5.07;;;2.90;;
20084;SDS011;10202;48.474;9.138;2022-08-03T05:03:58;3.67;;;2.95;;
20084;SDS011;10202;48.474;9.138;2022-08-03T05:06:24;4.13;;;2.92;;
20084;SDS011;10202;48.474;9.138;2022-08-03T05:08:50;3.08;;;2.78;;
20084;SDS011;10202;48.474;9.138;2022-08-03T05:11:15;8.63;;;2.78;;
20084;SDS011;10202;48.474;9.138;2022-08-03T05:13:41;4.88;;;2.85;;
20084;SDS011;10202;48.474;9.138;2022-08-03T05:16:07;4.75;;;2.70;;
20084;SDS011;10202;48.474;9.138;2022-08-03T05:18:33;4.65;;;2.72;;
20084;SDS011;10202;48.474;9.138;2022-08-03T05:21:00;3.70;;;2.70;;
20084;SDS011;10202;48.474;9.138;2022-08-03T05:23:25;3.60;;;2.63;;
20084;SDS011;10202;48.474;9.138;2022-08-03T05:25:51;3.20;;;2.90;;
20084;SDS011;10202;48.474;9.138;2022-08-03T05:28:17;2.88;;;2.67;;
20084;SDS011;10202;48.474;9.138;2022-08-03T05:30:42;7.55;;;2.92;;
20084;SDS011;10202;48.474;9.138;2022-08-03T05:33:08;3.10;;;2.80;;
20084;SDS011;10202;48.474;9.138;2022-08-03T05:35:35;3.92;;;2.95;;
20084;SDS011;10202;48.474;9.138;2022-08-03T05:38:03;4.03;;;2.97;;
20084;SDS011;10202;48.474;9.138;2022-08-03T05:40:29;3.10;;;2.80;;
20084;SDS011;10202;48.474;9.138;2022-08-03T05:42:54;6.35;;;2.58;;
20084;SDS011;10202;48.474;9.138;2022-08-03T05:45:20;5.05;;;3.13;;
20084;SDS011;10202;48.474;9.138;2022-08-03T05:47:45;5.57;;;3.25;;
20084;SDS011;10202;48.474;9.138;2022-08-03T05:50:12;3.85;;;3.17;;
20084;SDS011;10202;48.474;9.138;2022-08-03T05:52:39;5.22;;;2.90;;
20084;SDS011;10202;48.474;9.138;2022-08-03T05:55:05;7.35;;;3.05;;
20084;SDS011;10202;48.474;9.138;2022-08-03T05:57:32;3.88;;;3.15;;
20084;SDS011;10202;48.474;9.138;2022-08-03T05:59:57;4.90;;;2.80;;
20084;SDS011;10202;48.474;9.138;2022-08-03T06:02:23;3.38;;;3.08;;
20084;SDS011;10202;48.474;9.138;2022-08-03T06:04:49;3.67;;;2.88;;
20084;SDS011;10202;48.474;9.138;2022-08-03T06:07:14;3.25;;;2.95;;
20084;SDS011;10202;48.474;9.138;2022-08-03T06:09:40;4.72;;;3.00;;
20084;SDS011;10202;48.474;9.138;2022-08-03T06:12:06;3.30;;;3.00;;
20084;SDS011;10202;48.474;9.138;2022-08-03T06:14:31;3.55;;;3.25;;
20084;SDS011;10202;48.474;9.138;2022-08-03T06:16:57;6.43;;;3.45;;
20084;SDS011;10202;48.474;9.138;2022-08-03T06:19:22;3.45;;;3.05;;
20084;SDS011;10202;48.474;9.138;2022-08-03T06:21:48;3.70;;;3.40;;
20084;SDS011;10202;48.474;9.138;2022-08-03T06:24:14;4.18;;;3.55;;
20084;SDS011;10202;48.474;9.138;2022-08-03T06:26:40;4.22;;;3.50;;
20084;SDS011;10202;48.474;9.138;2022-08-03T06:29:06;4.18;;;3.78;;
20084;SDS011;10202;48.474;9.138;2022-08-03T06:31:31;6.70;;;3.75;;
20084;SDS011;10202;48.474;9.138;2022-08-03T06:33:57;5.38;;;3.50;;
20084;SDS011;10202;48.474;9.138;2022-08-03T06:36:22;9.82;;;3.50;;
20084;SDS011;10202;48.474;9.138;2022-08-03T06:38:49;8.07;;;3.42;;
20084;SDS011;10202;48.474;9.138;2022-08-03T06:41:15;4.60;;;3.70;;
20084;SDS011;10202;48.474;9.138;2022-08-03T06:43:40;5.43;;;3.88;;
20084;SDS011;10202;48.474;9.138;2022-08-03T06:46:06;4.25;;;3.63;;
20084;SDS011;10202;48.474;9.138;2022-08-03T06:48:32;3.55;;;3.25;;
20084;SDS011;10202;48.474;9.138;2022-08-03T06:50:57;4.13;;;3.53;;
20084;SDS011;10202;48.474;9.138;2022-08-03T06:53:23;4.00;;;3.17;;
20084;SDS011;10202;48.474;9.138;2022-08-03T06:55:49;5.85;;;3.53;;
20084;SDS011;10202;48.474;9.138;2022-08-03T06:58:14;4.30;;;3.50;;
20084;SDS011;10202;48.474;9.138;2022-08-03T07:00:40;3.47;;;3.17;;
20084;SDS011;10202;48.474;9.138;2022-08-03T07:03:06;5.63;;;3.80;;
20084;SDS011;10202;48.474;9.138;2022-08-03T07:05:32;5.45;;;3.63;;
20084;SDS011;10202;48.474;9.138;2022-08-03T07:07:59;7.30;;;3.63;;
20084;SDS011;10202;48.474;9.138;2022-08-03T07:10:27;4.45;;;3.53;;
20084;SDS011;10202;48.474;9.138;2022-08-03T07:12:53;3.97;;;3.60;;
20084;SDS011;10202;48.474;9.138;2022-08-03T07:15:18;4.07;;;3.67;;
20084;SDS011;10202;48.474;9.138;2022-08-03T07:17:44;4.63;;;3.47;;
20084;SDS011;10202;48.474;9.138;2022-08-03T07:20:10;4.20;;;3.80;;
20084;SDS011;10202;48.474;9.138;2022-08-03T07:22:35;4.03;;;3.63;;
20084;SDS011;10202;48.474;9.138;2022-08-03T07:25:01;11.77;;;3.75;;
20084;SDS011;10202;48.474;9.138;2022-08-03T07:27:26;4.80;;;3.88;;
20084;SDS011;10202;48.474;9.138;2022-08-03T07:29:53;16.10;;;4.15;;
20084;SDS011;10202;48.474;9.138;2022-08-03T07:32:19;3.85;;;3.45;;
20084;SDS011;10202;48.474;9.138;2022-08-03T07:34:45;3.67;;;3.35;;
20084;SDS011;10202;48.474;9.138;2022-08-03T07:37:10;3.97;;;3.25;;
20084;SDS011;10202;48.474;9.138;2022-08-03T07:39:36;3.17;;;2.88;;
20084;SDS011;10202;48.474;9.138;2022-08-03T07:42:01;5.60;;;2.88;;
20084;SDS011;10202;48.474;9.138;2022-08-03T07:44:27;2.88;;;2.67;;
20084;SDS011;10202;48.474;9.138;2022-08-03T07:46:52;4.53;;;3.05;;
20084;SDS011;10202;48.474;9.138;2022-08-03T07:49:17;3.97;;;3.35;;
20084;SDS011;10202;48.474;9.138;2022-08-03T07:51:43;9.05;;;3.50;;
20084;SDS011;10202;48.474;9.138;2022-08-03T07:54:09;4.03;;;3.63;;
20084;SDS011;10202;48.474;9.138;2022-08-03T07:56:35;3.80;;;3.50;;
20084;SDS011;10202;48.474;9.138;2022-08-03T07:59:01;3.45;;;3.15;;
20084;SDS011;10202;48.474;9.138;2022-08-03T08:01:27;3.67;;;3.38;;
20084;SDS011;10202;48.474;9.138;2022-08-03T08:03:53;4.10;;;3.30;;
20084;SDS011;10202;48.474;9.138;2022-08-03T08:06:18;3.90;;;3.60;;
20084;SDS011;10202;48.474;9.138;2022-08-03T08:08:44;4.00;;;3.30;;
20084;SDS011;10202;48.474;9.138;2022-08-03T08:11:10;5.32;;;3.70;;
20084;SDS011;10202;48.474;9.138;2022-08-03T08:13:36;3.95;;;3.55;;
20084;SDS011;10202;48.474;9.138;2022-08-03T08:16:03;4.50;;;3.30;;
20084;SDS011;10202;48.474;9.138;2022-08-03T08:18:29;5.10;;;3.33;;
20084;SDS011;10202;48.474;9.138;2022-08-03T08:20:54;3.78;;;3.25;;
20084;SDS011;10202;48.474;9.138;2022-08-03T08:23:20;4.90;;;3.40;;
20084;SDS011;10202;48.474;9.138;2022-08-03T08:25:49;4.53;;;3.22;;
20084;SDS011;10202;48.474;9.138;2022-08-03T08:28:19;3.50;;;3.20;;
20084;SDS011;10202;48.474;9.138;2022-08-03T08:30:45;3.47;;;3.17;;
20084;SDS011;10202;48.474;9.138;2022-08-03T08:33:11;3.97;;;3.10;;
20084;SDS011;10202;48.474;9.138;2022-08-03T08:35:37;3.50;;;3.20;;
20084;SDS011;10202;48.474;9.138;2022-08-03T08:38:03;3.30;;;3.00;;
20084;SDS011;10202;48.474;9.138;2022-08-03T08:40:28;4.90;;;3.40;;
20084;SDS011;10202;48.474;9.138;2022-08-03T08:42:54;4.60;;;3.30;;
20084;SDS011;10202;48.474;9.138;2022-08-03T08:45:19;4.85;;;3.22;;
20084;SDS011;10202;48.474;9.138;2022-08-03T08:47:46;4.88;;;3.20;;
20084;SDS011;10202;48.474;9.138;2022-08-03T08:50:13;3.63;;;3.10;;
20084;SDS011;10202;48.474;9.138;2022-08-03T08:52:40;3.20;;;2.90;;
20084;SDS011;10202;48.474;9.138;2022-08-03T08:55:07;9.77;;;2.88;;
20084;SDS011;10202;48.474;9.138;2022-08-03T08:57:45;3.45;;;3.00;;
20084;SDS011;10202;48.474;9.138;2022-08-03T09:00:13;6.93;;;3.33;;
20084;SDS011;10202;48.474;9.138;2022-08-03T09:02:43;4.82;;;3.65;;
20084;SDS011;10202;48.474;9.138;2022-08-03T09:05:13;5.55;;;2.97;;
20084;SDS011;10202;48.474;9.138;2022-08-03T09:07:40;4.57;;;3.10;;
20084;SDS011;10202;48.474;9.138;2022-08-03T09:10:07;5.10;;;2.90;;
20084;SDS011;10202;48.474;9.138;2022-08-03T09:12:37;3.30;;;2.97;;
20084;SDS011;10202;48.474;9.138;2022-08-03T09:15:20;3.33;;;2.50;;
20084;SDS011;10202;48.474;9.138;2022-08-03T09:17:51;2.65;;;2.45;;
20084;SDS011;10202;48.474;9.138;2022-08-03T09:20:18;2.85;;;2.65;;
20084;SDS011;10202;48.474;9.138;2022-08-03T09:23:00;6.90;;;2.67;;
20084;SDS011;10202;48.474;9.138;2022-08-03T09:25:34;4.40;;;2.90;;
20084;SDS011;10202;48.474;9.138;2022-08-03T09:30:29;3.13;;;2.83;;
20084;SDS011;10202;48.474;9.138;2022-08-03T09:33:02;3.35;;;2.67;;
20084;SDS011;10202;48.474;9.138;2022-08-03T09:35:28;3.25;;;2.72;;
20084;SDS011;10202;48.474;9.138;2022-08-03T09:40:36;3.38;;;2.47;;
20084;SDS011;10202;48.474;9.138;2022-08-03T09:43:01;8.98;;;2.95;;
20084;SDS011;10202;48.474;9.138;2022-08-03T09:45:27;2.35;;;2.25;;
20084;SDS011;10202;48.474;9.138;2022-08-03T09:47:54;2.67;;;2.45;;
20084;SDS011;10202;48.474;9.138;2022-08-03T09:50:21;4.40;;;2.60;;
20084;SDS011;10202;48.474;9.138;2022-08-03T09:52:46;4.32;;;2.55;;
20084;SDS011;10202;48.474;9.138;2022-08-03T09:55:15;2.10;;;2.00;;
20084;SDS011;10202;48.474;9.138;2022-08-03T09:57:40;2.30;;;2.10;;
20084;SDS011;10202;48.474;9.138;2022-08-03T10:00:11;2.42;;;2.22;;
20084;SDS011;10202;48.474;9.138;2022-08-03T10:10:12;2.00;;;1.90;;
20084;SDS011;10202;48.474;9.138;2022-08-03T10:12:39;5.90;;;2.38;;
20084;SDS011;10202;48.474;9.138;2022-08-03T10:15:06;2.20;;;2.00;;
20084;SDS011;10202;48.474;9.138;2022-08-03T10:17:32;3.38;;;2.20;;
20084;SDS011;10202;48.474;9.138;2022-08-03T10:19:58;4.35;;;2.20;;
20084;SDS011;10202;48.474;9.138;2022-08-03T10:22:28;2.40;;;2.20;;
20084;SDS011;10202;48.474;9.138;2022-08-03T10:24:59;5.72;;;2.10;;
20084;SDS011;10202;48.474;9.138;2022-08-03T10:27:32;3.47;;;2.00;;
20084;SDS011;10202;48.474;9.138;2022-08-03T10:30:01;7.38;;;1.75;;
20084;SDS011;10202;48.474;9.138;2022-08-03T10:32:30;4.43;;;1.98;;
20084;SDS011;10202;48.474;9.138;2022-08-03T10:35:02;2.03;;;1.92;;
20084;SDS011;10202;48.474;9.138;2022-08-03T10:37:29;2.13;;;2.03;;
20084;SDS011;10202;48.474;9.138;2022-08-03T10:39:54;2.35;;;2.15;;
20084;SDS011;10202;48.474;9.138;2022-08-03T10:42:22;3.80;;;2.15;;
20084;SDS011;10202;48.474;9.138;2022-08-03T10:44:51;3.38;;;2.22;;
20084;SDS011;10202;48.474;9.138;2022-08-03T10:47:24;2.63;;;2.40;;
20084;SDS011;10202;48.474;9.138;2022-08-03T10:49:50;3.30;;;1.98;;
20084;SDS011;10202;48.474;9.138;2022-08-03T10:52:16;2.15;;;2.00;;
20084;SDS011;10202;48.474;9.138;2022-08-03T10:54:42;3.13;;;2.10;;
20084;SDS011;10202;48.474;9.138;2022-08-03T10:57:49;3.45;;;1.90;;
20084;SDS011;10202;48.474;9.138;2022-08-03T11:00:18;2.10;;;1.90;;
20084;SDS011;10202;48.474;9.138;2022-08-03T11:03:00;2.10;;;1.92;;
20084;SDS011;10202;48.474;9.138;2022-08-03T11:05:29;2.08;;;1.90;;
20084;SDS011;10202;48.474;9.138;2022-08-03T11:11:00;2.40;;;1.95;;
20084;SDS011;10202;48.474;9.138;2022-08-03T11:16:31;3.72;;;2.10;;
20084;SDS011;10202;48.474;9.138;2022-08-03T11:19:02;2.15;;;2.00;;
20084;SDS011;10202;48.474;9.138;2022-08-03T11:27:19;1.95;;;1.85;;
20084;SDS011;10202;48.474;9.138;2022-08-03T11:48:45;2.10;;;2.00;;
20084;SDS011;10202;48.474;9.138;2022-08-03T11:51:20;2.70;;;2.13;;
20084;SDS011;10202;48.474;9.138;2022-08-03T11:53:53;2.58;;;2.05;;
20084;SDS011;10202;48.474;9.138;2022-08-03T11:56:22;4.97;;;2.20;;
20084;SDS011;10202;48.474;9.138;2022-08-03T11:58:48;2.65;;;2.00;;
20084;SDS011;10202;48.474;9.138;2022-08-03T12:01:19;1.98;;;1.88;;
20084;SDS011;10202;48.474;9.138;2022-08-03T12:03:45;2.72;;;2.20;;
20084;SDS011;10202;48.474;9.138;2022-08-03T12:06:11;2.38;;;1.90;;
20084;SDS011;10202;48.474;9.138;2022-08-03T12:08:38;3.88;;;2.42;;
20084;SDS011;10202;48.474;9.138;2022-08-03T12:11:04;2.17;;;1.92;;
20084;SDS011;10202;48.474;9.138;2022-08-03T12:16:07;1.92;;;1.83;;
20084;SDS011;10202;48.474;9.138;2022-08-03T12:18:34;2.20;;;2.00;;
20084;SDS011;10202;48.474;9.138;2022-08-03T12:21:06;3.95;;;1.92;;
20084;SDS011;10202;48.474;9.138;2022-08-03T12:23:34;2.33;;;2.10;;
20084;SDS011;10202;48.474;9.138;2022-08-03T12:26:02;3.60;;;1.83;;
20084;SDS011;10202;48.474;9.138;2022-08-03T12:28:28;1.90;;;1.80;;
20084;SDS011;10202;48.474;9.138;2022-08-03T12:30:54;2.60;;;2.40;;
20084;SDS011;10202;48.474;9.138;2022-08-03T12:33:26;2.28;;;2.10;;
20084;SDS011;10202;48.474;9.138;2022-08-03T12:38:31;1.90;;;1.80;;
20084;SDS011;10202;48.474;9.138;2022-08-03T12:40:59;2.10;;;1.90;;
20084;SDS011;10202;48.474;9.138;2022-08-03T12:43:29;2.40;;;2.20;;
20084;SDS011;10202;48.474;9.138;2022-08-03T12:46:11;2.00;;;1.90;;
20084;SDS011;10202;48.474;9.138;2022-08-03T12:51:35;2.85;;;2.00;;
20084;SDS011;10202;48.474;9.138;2022-08-03T12:54:03;2.65;;;2.25;;
20084;SDS011;10202;48.474;9.138;2022-08-03T12:56:29;1.95;;;1.85;;
20084;SDS011;10202;48.474;9.138;2022-08-03T12:58:55;3.10;;;1.88;;
20084;SDS011;10202;48.474;9.138;2022-08-03T13:01:21;3.15;;;1.90;;
20084;SDS011;10202;48.474;9.138;2022-08-03T13:03:48;2.35;;;2.15;;
20084;SDS011;10202;48.474;9.138;2022-08-03T13:06:24;2.50;;;1.83;;
20084;SDS011;10202;48.474;9.138;2022-08-03T13:09:06;3.95;;;2.40;;
20084;SDS011;10202;48.474;9.138;2022-08-03T13:11:32;2.05;;;1.90;;
20084;SDS011;10202;48.474;9.138;2022-08-03T13:13:58;3.53;;;1.90;;
20084;SDS011;10202;48.474;9.138;2022-08-03T13:16:23;2.05;;;1.80;;
20084;SDS011;10202;48.474;9.138;2022-08-03T13:18:50;2.63;;;2.15;;
20084;SDS011;10202;48.474;9.138;2022-08-03T13:21:17;2.17;;;1.92;;
20084;SDS011;10202;48.474;9.138;2022-08-03T13:23:43;2.40;;;2.17;;
20084;SDS011;10202;48.474;9.138;2022-08-03T13:26:10;3.85;;;2.00;;
20084;SDS011;10202;48.474;9.138;2022-08-03T13:28:36;2.17;;;2.00;;
20084;SDS011;10202;48.474;9.138;2022-08-03T13:31:02;2.08;;;1.90;;
20084;SDS011;10202;48.474;9.138;2022-08-03T13:33:28;2.00;;;1.90;;
20084;SDS011;10202;48.474;9.138;2022-08-03T13:35:53;2.17;;;2.00;;
20084;SDS011;10202;48.474;9.138;2022-08-03T13:38:19;5.50;;;2.17;;
20084;SDS011;10202;48.474;9.138;2022-08-03T13:40:45;3.15;;;2.30;;
20084;SDS011;10202;48.474;9.138;2022-08-03T13:43:11;2.03;;;1.90;;
20084;SDS011;10202;48.474;9.138;2022-08-03T13:45:37;3.15;;;2.00;;
20084;SDS011;10202;48.474;9.138;2022-08-03T13:48:03;2.75;;;2.00;;
20084;SDS011;10202;48.474;9.138;2022-08-03T13:50:30;2.25;;;2.08;;
20084;SDS011;10202;48.474;9.138;2022-08-03T13:52:56;2.08;;;1.88;;
20084;SDS011;10202;48.474;9.138;2022-08-03T13:55:22;4.85;;;2.15;;
20084;SDS011;10202;48.474;9.138;2022-08-03T14:01:35;2.35;;;2.15;;
20084;SDS011;10202;48.474;9.138;2022-08-03T14:04:00;2.88;;;1.85;;
20084;SDS011;10202;48.474;9.138;2022-08-03T14:06:26;3.63;;;2.10;;
20084;SDS011;10202;48.474;9.138;2022-08-03T14:08:51;2.50;;;2.08;;
20084;SDS011;10202;48.474;9.138;2022-08-03T14:11:17;2.20;;;2.00;;
20084;SDS011;10202;48.474;9.138;2022-08-03T14:13:43;2.25;;;2.05;;
20084;SDS011;10202;48.474;9.138;2022-08-03T14:16:10;3.58;;;2.03;;
20084;SDS011;10202;48.474;9.138;2022-08-03T14:18:35;3.63;;;2.13;;
20084;SDS011;10202;48.474;9.138;2022-08-03T14:21:02;2.22;;;2.08;;
20084;SDS011;10202;48.474;9.138;2022-08-03T14:23:29;5.32;;;1.92;;
20084;SDS011;10202;48.474;9.138;2022-08-03T14:25:54;2.28;;;2.08;;
20084;SDS011;10202;48.474;9.138;2022-08-03T14:28:20;2.65;;;1.88;;
20084;SDS011;10202;48.474;9.138;2022-08-03T14:30:47;2.55;;;2.10;;
20084;SDS011;10202;48.474;9.138;2022-08-03T14:33:13;2.92;;;2.08;;
20084;SDS011;10202;48.474;9.138;2022-08-03T14:35:38;2.90;;;2.10;;
20084;SDS011;10202;48.474;9.138;2022-08-03T14:38:04;2.10;;;1.98;;
20084;SDS011;10202;48.474;9.138;2022-08-03T14:40:30;1.60;;;1.50;;
20084;SDS011;10202;48.474;9.138;2022-08-03T14:42:55;1.80;;;1.70;;
20084;SDS011;10202;48.474;9.138;2022-08-03T14:45:21;2.20;;;1.80;;
20084;SDS011;10202;48.474;9.138;2022-08-03T14:47:47;2.30;;;2.10;;
20084;SDS011;10202;48.474;9.138;2022-08-03T14:50:12;2.08;;;1.88;;
20084;SDS011;10202;48.474;9.138;2022-08-03T14:52:38;2.20;;;2.00;;
20084;SDS011;10202;48.474;9.138;2022-08-03T14:55:03;2.25;;;2.05;;
20084;SDS011;10202;48.474;9.138;2022-08-03T14:57:29;4.03;;;2.00;;
20084;SDS011;10202;48.474;9.138;2022-08-03T14:59:55;2.10;;;2.00;;
20084;SDS011;10202;48.474;9.138;2022-08-03T15:02:20;3.85;;;2.00;;
20084;SDS011;10202;48.474;9.138;2022-08-03T15:04:46;5.85;;;2.15;;
20084;SDS011;10202;48.474;9.138;2022-08-03T15:07:11;2.55;;;2.17;;
20084;SDS011;10202;48.474;9.138;2022-08-03T15:09:37;2.10;;;1.90;;
20084;SDS011;10202;48.474;9.138;2022-08-03T15:12:05;2.67;;;1.73;;
20084;SDS011;10202;48.474;9.138;2022-08-03T15:14:31;2.25;;;2.13;;
20084;SDS011;10202;48.474;9.138;2022-08-03T15:16:57;2.38;;;1.90;;
20084;SDS011;10202;48.474;9.138;2022-08-03T15:19:22;4.18;;;2.10;;
20084;SDS011;10202;48.474;9.138;2022-08-03T15:21:48;2.03;;;1.88;;
20084;SDS011;10202;48.474;9.138;2022-08-03T15:24:13;2.47;;;2.10;;
20084;SDS011;10202;48.474;9.138;2022-08-03T15:26:39;2.90;;;2.20;;
20084;SDS011;10202;48.474;9.138;2022-08-03T15:29:04;5.68;;;2.20;;
20084;SDS011;10202;48.474;9.138;2022-08-03T15:31:30;2.05;;;1.95;;
20084;SDS011;10202;48.474;9.138;2022-08-03T15:33:56;4.45;;;2.00;;
20084;SDS011;10202;48.474;9.138;2022-08-03T15:36:21;3.83;;;1.92;;
20084;SDS011;10202;48.474;9.138;2022-08-03T15:38:47;2.38;;;2.08;;
20084;SDS011;10202;48.474;9.138;2022-08-03T15:41:13;3.53;;;2.10;;
20084;SDS011;10202;48.474;9.138;2022-08-03T15:43:39;3.15;;;2.08;;
20084;SDS011;10202;48.474;9.138;2022-08-03T15:46:05;2.30;;;2.10;;
20084;SDS011;10202;48.474;9.138;2022-08-03T15:48:30;2.17;;;1.98;;
20084;SDS011;10202;48.474;9.138;2022-08-03T15:50:56;2.40;;;1.83;;
20084;SDS011;10202;48.474;9.138;2022-08-03T15:53:21;3.05;;;2.10;;
20084;SDS011;10202;48.474;9.138;2022-08-03T15:55:47;3.30;;;1.92;;
20084;SDS011;10202;48.474;9.138;2022-08-03T15:58:12;2.25;;;1.77;;